Time;durP1;ratioP1;P1;durP2;ratioP2;P2;SDS_P1;SDS_P2;PMS_P1;PMS_P2;Temp;Humidity;BMP_temperature;BMP_pressure;BME280_temperature;BME280_humidity;BME280_pressure;Samples;Min_cycle;Max_cycle;Signal;HPM_P1;HPM_P2
2020/12/18 00:02:11;;;;;;;30.33;20.63;;;;;;;2.63;80.21;100915.93;126489;1093;104366;-79
2020/12/18 00:04:57;;;;;;;29.47;20.27;;;;;;;2.57;80.53;100927.89;126434;1098;104577;-78
2020/12/18 00:07:25;;;;;;;32.15;21.65;;;;;;;2.55;80.35;100925.30;126478;1098;103236;-79
2020/12/18 00:09:53;;;;;;;33.00;21.50;;;;;;;2.57;81.08;100920.16;126687;1100;104419;-79
2020/12/18 00:12:21;;;;;;;33.80;22.53;;;;;;;2.61;81.14;100916.77;126482;1099;104439;-79
2020/12/18 00:14:49;;;;;;;35.50;22.90;;;;;;;2.59;80.89;100909.03;126709;1093;104493;-79
2020/12/18 00:17:16;;;;;;;36.13;22.97;;;;;;;2.57;80.53;100903.00;126486;1099;104535;-78
2020/12/18 00:19:44;;;;;;;41.97;25.63;;;;;;;2.56;80.68;100909.00;126697;1094;104397;-78
2020/12/18 00:22:11;;;;;;;38.03;24.67;;;;;;;2.54;80.30;100917.56;126691;1098;104430;-79
2020/12/18 00:24:38;;;;;;;45.77;27.80;;;;;;;2.50;80.84;100908.91;126434;1099;104465;-79
2020/12/18 00:27:05;;;;;;;49.33;30.00;;;;;;;2.51;81.35;100910.64;126672;1098;104422;-79
2020/12/18 00:29:33;;;;;;;52.17;30.93;;;;;;;2.56;81.17;100915.86;126498;1099;104471;-79
2020/12/18 00:32:04;;;;;;;55.43;32.00;;;;;;;2.58;80.97;100911.59;126702;1098;104478;-79
2020/12/18 00:34:32;;;;;;;49.03;29.07;;;;;;;2.61;81.14;100917.63;126527;1099;104471;-79
2020/12/18 00:36:59;;;;;;;50.03;30.33;;;;;;;2.62;80.57;100914.20;126719;1098;104578;-78
2020/12/18 00:39:26;;;;;;;51.03;30.80;;;;;;;2.63;81.17;100915.06;126718;1093;104436;-79
2020/12/18 00:41:54;;;;;;;50.92;28.83;;;;;;;2.64;80.48;100906.49;126708;1098;104410;-79
2020/12/18 00:44:22;;;;;;;51.73;30.07;;;;;;;2.62;80.40;100908.19;126778;1098;104462;-78
2020/12/18 00:46:49;;;;;;;47.90;28.43;;;;;;;2.59;80.56;100914.17;126461;1098;104541;-78
2020/12/18 00:49:16;;;;;;;59.87;33.57;;;;;;;2.58;80.41;100914.16;126452;1093;104353;-79
2020/12/18 00:51:44;;;;;;;58.27;34.10;;;;;;;2.62;80.61;100918.49;126713;1093;106631;-79
2020/12/18 00:54:11;;;;;;;59.42;33.65;;;;;;;2.64;81.30;100927.95;126522;1100;104407;-79
2020/12/18 00:56:44;;;;;;;51.87;31.77;;;;;;;2.64;80.37;100921.95;126465;1100;104493;-79
2020/12/18 00:59:13;;;;;;;56.70;32.67;;;;;;;2.64;80.83;100922.80;126447;1098;104391;-79
2020/12/18 01:01:41;;;;;;;61.95;35.25;;;;;;;2.59;80.54;100915.89;126708;1098;105457;-78
2020/12/18 01:04:09;;;;;;;61.50;35.93;;;;;;;2.55;80.52;100919.28;126483;1093;104397;-79
2020/12/18 01:06:36;;;;;;;71.97;40.73;;;;;;;2.56;80.54;100919.30;126641;1093;104503;-79
2020/12/18 01:09:04;;;;;;;66.13;37.57;;;;;;;2.54;80.38;100907.26;126449;1100;104471;-78
2020/12/18 01:11:37;;;;;;;77.40;40.83;;;;;;;2.53;80.51;100913.25;126422;1098;105690;-79
2020/12/18 01:14:05;;;;;;;85.03;43.93;;;;;;;2.52;81.07;100914.97;126470;1100;104551;-79
2020/12/18 01:16:35;;;;;;;83.43;44.67;;;;;;;2.53;80.72;100908.97;126418;1093;104484;-78
2020/12/18 01:19:04;;;;;;;80.97;43.47;;;;;;;2.54;80.51;100905.55;126700;1098;104542;-79
2020/12/18 01:21:36;;;;;;;84.23;44.13;;;;;;;2.50;80.32;100906.33;126733;1098;104936;-79
2020/12/18 01:24:03;;;;;;;96.97;48.87;;;;;;;2.48;80.68;100899.45;126637;1093;104452;-79
2020/12/18 01:26:32;;;;;;;81.07;44.37;;;;;;;2.48;81.09;100904.59;126506;1099;104394;-78
2020/12/18 01:28:59;;;;;;;84.17;44.07;;;;;;;2.47;80.57;100908.02;126665;1093;104407;-79
2020/12/18 01:31:28;;;;;;;91.47;46.07;;;;;;;2.46;80.73;100907.16;126756;1093;104497;-79
2020/12/18 01:33:55;;;;;;;89.13;47.67;;;;;;;2.43;80.52;100905.41;126705;1098;104578;-79
2020/12/18 01:36:26;;;;;;;95.73;50.37;;;;;;;2.44;80.89;100903.70;126454;1099;104243;-78
2020/12/18 01:38:58;;;;;;;92.27;46.50;;;;;;;2.43;80.92;100907.13;126514;1093;104430;-79
2020/12/18 01:41:25;;;;;;;92.17;47.97;;;;;;;2.40;80.53;100902.81;126453;1100;104391;-79
2020/12/18 01:43:53;;;;;;;96.83;50.63;;;;;;;2.40;80.99;100904.52;126443;1100;104538;-78
2020/12/18 01:46:27;;;;;;;90.27;46.53;;;;;;;2.42;81.18;100910.55;126451;1100;102641;-79
2020/12/18 01:48:57;;;;;;;80.83;42.60;;;;;;;2.39;80.67;100901.08;126477;1100;104212;-79
2020/12/18 01:51:45;;;;;;;86.80;44.57;;;;;;;2.37;80.94;100905.36;126539;1098;104202;-78
2020/12/18 01:54:19;;;;;;;88.87;44.93;;;;;;;2.36;81.27;100898.48;126454;1093;104859;-79
2020/12/18 01:56:49;;;;;;;90.23;47.97;;;;;;;2.37;80.69;100892.48;126742;1099;104481;-79
2020/12/18 01:59:22;;;;;;;96.30;47.90;;;;;;;2.37;80.62;100899.34;126704;1093;104397;-79
2020/12/18 02:02:03;;;;;;;93.40;47.40;;;;;;;2.36;80.97;100901.05;126677;1099;104375;-79
2020/12/18 02:04:43;;;;;;;85.47;44.23;;;;;;;2.35;80.96;100899.33;126453;1100;104435;-79
2020/12/18 02:07:13;;;;;;;92.23;47.00;;;;;;;2.35;80.82;100903.61;126705;1093;104429;-79
2020/12/18 02:09:53;;;;;;;87.87;46.27;;;;;;;2.38;81.21;100903.64;126679;1093;104414;-79
2020/12/18 02:12:22;;;;;;;74.93;40.73;;;;;;;2.37;81.24;100899.34;126456;1095;103306;-79
2020/12/18 02:14:51;;;;;;;88.50;45.65;;;;;;;2.36;80.82;100905.34;126419;1100;104420;-78
2020/12/18 02:17:19;;;;;;;88.07;46.13;;;;;;;2.36;80.96;100906.20;126497;1093;104398;-79
2020/12/18 02:19:53;;;;;;;80.47;42.80;;;;;;;2.36;80.97;100905.34;126702;1093;104455;-79
2020/12/18 02:22:24;;;;;;;82.60;43.00;;;;;;;2.36;81.21;100905.34;126593;1098;104423;-78
2020/12/18 02:25:02;;;;;;;79.43;42.57;;;;;;;2.33;81.00;100913.86;126676;1093;104461;-78
2020/12/18 02:27:30;;;;;;;89.57;45.77;;;;;;;2.32;80.93;100906.98;126690;1098;104532;-79
2020/12/18 02:30:00;;;;;;;89.67;46.43;;;;;;;2.32;81.58;100906.12;126420;1100;104477;-79
2020/12/18 02:32:29;;;;;;;76.10;40.20;;;;;;;2.32;81.50;100903.55;126430;1100;104432;-80
2020/12/18 02:35:03;;;;;;;80.40;44.00;;;;;;;2.32;81.38;100904.41;126496;1099;104432;-79
2020/12/18 02:37:35;;;;;;;79.50;42.47;;;;;;;2.35;81.66;100914.77;126757;1093;104733;-79
2020/12/18 02:40:03;;;;;;;80.17;41.93;;;;;;;2.35;81.12;100904.48;126649;1098;104394;-79
2020/12/18 02:43:00;;;;;;;87.13;43.77;;;;;;;2.34;81.50;100905.32;126418;1097;104554;-78
2020/12/18 02:45:27;;;;;;;90.30;46.63;;;;;;;2.35;81.24;100904.48;126473;1100;104385;-79
2020/12/18 02:48:18;;;;;;;84.67;44.67;;;;;;;2.37;81.46;100907.06;126666;1098;104478;-79
2020/12/18 02:50:53;;;;;;;82.10;42.97;;;;;;;2.37;81.46;100907.92;126665;1098;104394;-79
2020/12/18 02:53:22;;;;;;;80.67;43.17;;;;;;;2.38;81.46;100909.66;126402;1099;104436;-79
2020/12/18 02:56:08;;;;;;;;;;;;;;;2.37;81.39;100897.63;126552;1092;107387;-79
2020/12/18 02:58:56;;;;;;;91.47;46.33;;;;;;;2.35;81.46;100904.48;126639;1093;106583;-79
2020/12/18 03:01:23;;;;;;;89.13;44.60;;;;;;;2.35;81.25;100901.90;126510;1093;102567;-79
2020/12/18 03:03:52;;;;;;;83.13;43.43;;;;;;;2.34;81.58;100902.75;126434;1098;103188;-78
2020/12/18 03:06:31;;;;;;;75.17;39.83;;;;;;;2.35;81.87;100907.05;126461;1093;104647;-78
2020/12/18 03:08:59;;;;;;;91.93;45.57;;;;;;;2.36;81.38;100902.77;126727;1093;104275;-78
2020/12/18 03:11:26;;;;;;;82.47;42.37;;;;;;;2.36;81.56;100905.34;126722;1098;104529;-78
2020/12/18 03:13:57;;;;;;;81.83;43.00;;;;;;;2.36;81.81;100906.20;126740;1098;102669;-78
2020/12/18 03:16:30;;;;;;;83.90;43.87;;;;;;;2.38;82.05;100904.50;126648;1098;104433;-79
2020/12/18 03:19:19;;;;;;;78.63;41.67;;;;;;;2.40;81.85;100907.95;126629;1098;104666;-79
2020/12/18 03:21:48;;;;;;;77.57;41.17;;;;;;;2.39;82.16;100916.53;126703;1098;104391;-79
2020/12/18 03:24:28;;;;;;;80.87;41.73;;;;;;;2.38;81.70;100914.80;126637;1098;104593;-79
2020/12/18 03:27:16;;;;;;;87.97;45.90;;;;;;;2.37;82.34;100905.36;126489;1093;102144;-79
2020/12/18 03:29:53;;;;;;;;;;;;;;;2.38;82.28;100904.50;126689;1099;104394;-77
2020/12/18 03:32:21;;;;;;;74.73;39.73;;;;;;;2.36;82.00;100900.19;126628;1093;105085;-79
2020/12/18 03:34:59;;;;;;;78.10;40.47;;;;;;;2.34;82.37;100897.60;126704;1093;104897;-79
2020/12/18 03:37:31;;;;;;;78.73;41.43;;;;;;;2.36;82.67;100910.48;126499;1098;104404;-78
2020/12/18 03:40:00;;;;;;;77.67;39.77;;;;;;;2.37;82.30;100907.92;126517;1100;102629;-78
2020/12/18 03:42:32;;;;;;;85.23;43.97;;;;;;;2.37;82.45;100904.49;126729;1098;104484;-79
2020/12/18 03:45:00;;;;;;;80.70;42.43;;;;;;;2.40;82.42;100902.81;126759;1098;105229;-78
2020/12/18 03:47:53;;;;;;;83.60;42.60;;;;;;;2.41;82.62;100907.11;126696;1099;104477;-78
2020/12/18 03:50:28;;;;;;;72.27;38.97;;;;;;;2.41;82.54;100894.23;126543;1100;104375;-78
2020/12/18 03:53:10;;;;;;;81.20;42.17;;;;;;;2.41;82.66;100891.66;126718;1098;105585;-78
2020/12/18 03:55:41;;;;;;;84.07;44.70;;;;;;;2.42;82.76;100895.97;126519;1097;104491;-79
2020/12/18 03:58:38;;;;;;;76.60;41.53;;;;;;;2.42;82.94;100889.95;126380;1099;104544;-78
2020/12/18 04:01:19;;;;;;;77.97;39.77;;;;;;;2.42;82.79;100895.97;126558;1098;104183;-79
2020/12/18 04:03:47;;;;;;;75.27;40.83;;;;;;;2.43;83.11;100895.11;126498;1099;104525;-79
2020/12/18 04:06:14;;;;;;;76.13;40.80;;;;;;;2.47;83.01;100895.14;126503;1098;104398;-79
2020/12/18 04:08:42;;;;;;;80.07;40.97;;;;;;;2.46;82.73;100902.00;126725;1098;104400;-78
2020/12/18 04:11:17;;;;;;;76.53;40.17;;;;;;;2.47;82.80;100902.87;126575;1098;104439;-78
2020/12/18 04:14:11;;;;;;;70.27;38.60;;;;;;;2.48;82.95;100897.73;126713;1098;104400;-79
2020/12/18 04:16:54;;;;;;;74.37;39.73;;;;;;;2.49;83.02;100906.31;126530;1098;104475;-78
2020/12/18 04:19:22;;;;;;;72.17;37.30;;;;;;;2.51;82.80;100909.77;126689;1098;104532;-78
2020/12/18 04:21:50;;;;;;;77.77;41.67;;;;;;;2.51;83.26;100909.77;126524;1100;104557;-78
2020/12/18 04:24:28;;;;;;;71.60;40.60;;;;;;;2.54;82.81;100909.83;126542;1098;104391;-78
2020/12/18 04:26:56;;;;;;;73.67;39.73;;;;;;;2.55;82.87;100911.56;126549;1093;104333;-79
2020/12/18 04:29:23;;;;;;;74.60;39.87;;;;;;;2.58;82.93;100911.59;126509;1099;104503;-78
2020/12/18 04:31:50;;;;;;;67.83;37.43;;;;;;;2.64;83.13;100917.66;126512;1099;104445;-78
2020/12/18 04:34:18;;;;;;;65.47;38.90;;;;;;;2.65;82.70;100915.94;126494;1100;104583;-79
2020/12/18 04:36:55;;;;;;;74.05;40.15;;;;;;;2.67;83.23;100915.11;126490;1093;104629;-78
2020/12/18 04:39:34;;;;;;;71.47;37.87;;;;;;;2.69;83.22;100912.55;126510;1098;104531;-79
2020/12/18 04:42:02;;;;;;;68.43;39.07;;;;;;;2.72;82.90;100915.18;126692;1098;104474;-78
2020/12/18 04:44:29;;;;;;;71.17;38.73;;;;;;;2.76;83.01;100906.62;126667;1093;105247;-79
2020/12/18 04:47:02;;;;;;;69.63;38.47;;;;;;;2.80;82.72;100913.53;126701;1098;102683;-78
2020/12/18 04:49:31;;;;;;;66.67;37.67;;;;;;;2.85;82.76;100914.44;126481;1100;104285;-78
2020/12/18 04:52:10;;;;;;;64.93;36.47;;;;;;;2.92;82.85;100910.22;126506;1099;104371;-78
2020/12/18 04:54:47;;;;;;;62.33;35.60;;;;;;;2.96;83.01;100922.28;126525;1100;104411;-79
2020/12/18 04:57:35;;;;;;;60.10;35.57;;;;;;;2.96;82.64;100928.30;126702;1098;104502;-79
2020/12/18 05:00:07;;;;;;;60.65;34.55;;;;;;;2.97;82.82;100922.29;126498;1099;103079;-79
2020/12/18 05:03:04;;;;;;;57.47;34.23;;;;;;;2.97;82.69;100927.44;126452;1098;104430;-79
2020/12/18 05:05:32;;;;;;;58.90;33.63;;;;;;;2.98;82.86;100924.02;126493;1098;104407;-79
2020/12/18 05:08:10;;;;;;;58.93;33.67;;;;;;;3.00;82.78;100918.87;126508;1099;104401;-78
2020/12/18 05:10:41;;;;;;;59.27;34.47;;;;;;;3.00;83.03;100917.16;126453;1093;104502;-78
2020/12/18 05:13:19;;;;;;;54.27;32.30;;;;;;;3.04;82.35;100915.47;126669;1098;104480;-79
2020/12/18 05:15:54;;;;;;;55.65;33.65;;;;;;;3.04;82.57;100916.33;126643;1098;104237;-76
2020/12/18 05:18:39;;;;;;;57.50;33.95;;;;;;;3.05;82.50;100919.77;126677;1098;104414;-78
2020/12/18 05:21:35;;;;;;;54.33;32.80;;;;;;;3.06;82.53;100918.95;126600;1098;104401;-78
2020/12/18 05:24:06;;;;;;;55.10;32.23;;;;;;;3.07;82.91;100919.81;126736;1098;103575;-78
2020/12/18 05:26:38;;;;;;;57.07;33.30;;;;;;;3.08;82.34;100929.27;126726;1093;104577;-79
2020/12/18 05:29:09;;;;;;;56.67;32.00;;;;;;;3.09;82.39;100931.00;126509;1093;104888;-78
2020/12/18 05:32:01;;;;;;;58.37;32.63;;;;;;;3.07;82.71;100932.70;126568;1100;104952;-78
2020/12/18 05:34:51;;;;;;;56.33;32.93;;;;;;;3.08;82.86;100934.42;126518;1099;104526;-78
2020/12/18 05:37:57;;;;;;;55.47;33.27;;;;;;;3.11;82.83;100939.60;126526;1096;104460;-77
2020/12/18 05:40:51;;;;;;;59.37;32.77;;;;;;;3.12;82.69;100938.75;126652;1098;105000;-79
2020/12/18 05:43:33;;;;;;;54.23;32.23;;;;;;;3.11;82.22;100944.76;126495;1098;104484;-78
2020/12/18 05:46:29;;;;;;;57.57;33.60;;;;;;;3.12;82.58;100949.06;126723;1098;101964;-78
2020/12/18 05:49:31;;;;;;;55.20;32.13;;;;;;;3.12;82.96;100951.64;126764;1093;104388;-78
2020/12/18 05:52:18;;;;;;;60.43;33.43;;;;;;;3.13;83.06;100949.07;126516;1093;104392;-79
2020/12/18 05:54:54;;;;;;;58.77;32.73;;;;;;;3.15;82.74;100946.51;126717;1098;104603;-79
2020/12/18 05:57:23;;;;;;;57.13;32.33;;;;;;;3.15;82.76;100946.51;126538;1098;104547;-79
2020/12/18 05:59:58;;;;;;;57.03;33.10;;;;;;;3.16;82.43;100949.09;126536;1093;104376;-78
2020/12/18 06:03:02;;;;;;;59.73;32.20;;;;;;;3.18;82.81;100943.95;126640;1098;104388;-78
2020/12/18 06:05:53;;;;;;;55.70;30.93;;;;;;;3.19;83.11;100945.67;126529;1094;103168;-79
2020/12/18 06:08:28;;;;;;;66.87;35.23;;;;;;;3.20;82.54;100950.84;126460;1096;104534;-78
2020/12/18 06:11:00;;;;;;;72.50;35.07;;;;;;;3.22;82.92;100943.98;126401;1093;104365;-79
2020/12/18 06:13:38;;;;;;;68.23;34.37;;;;;;;3.24;83.14;100954.34;126679;1094;104420;-78
2020/12/18 06:16:13;;;;;;;63.83;34.73;;;;;;;3.24;83.24;100951.77;126499;1093;104447;-78
2020/12/18 06:18:54;;;;;;;65.05;34.08;;;;;;;3.22;82.99;100958.59;126524;1098;102937;-79
2020/12/18 06:21:33;;;;;;;69.53;34.20;;;;;;;3.19;82.58;100971.45;126686;1098;104372;-78
2020/12/18 06:24:03;;;;;;;65.43;34.70;;;;;;;3.20;82.78;100979.20;126479;1100;104286;-79
2020/12/18 06:26:55;;;;;;;62.13;34.10;;;;;;;3.22;83.41;100974.05;126491;1093;104412;-79
2020/12/18 06:29:47;;;;;;;71.80;34.67;;;;;;;3.20;83.40;100974.05;126476;1100;104461;-79
2020/12/18 06:32:33;;;;;;;74.62;36.20;;;;;;;3.21;82.90;100974.91;126444;1100;104536;-79
2020/12/18 06:35:34;;;;;;;70.07;35.07;;;;;;;3.23;83.54;100970.62;126490;1099;104475;-79
2020/12/18 06:38:21;;;;;;;73.03;37.00;;;;;;;3.23;83.33;100980.94;126445;1093;104528;-79
2020/12/18 06:41:25;;;;;;;69.13;37.03;;;;;;;3.22;83.18;100976.63;126695;1098;104449;-79
2020/12/18 06:44:33;;;;;;;70.90;36.03;;;;;;;3.22;83.63;100990.39;126642;1093;104481;-79
2020/12/18 06:47:31;;;;;;;67.60;36.00;;;;;;;3.23;82.98;101001.56;126374;1100;102709;-78
2020/12/18 06:50:34;;;;;;;75.50;36.48;;;;;;;3.25;83.32;100994.73;126716;1099;104423;-78
2020/12/18 06:53:24;;;;;;;69.13;36.23;;;;;;;3.29;83.53;101006.80;126481;1099;104472;-79
2020/12/18 06:56:03;;;;;;;72.97;37.73;;;;;;;3.31;83.79;100995.64;126465;1099;104450;-79
2020/12/18 06:58:33;;;;;;;65.80;35.87;;;;;;;3.36;83.37;100998.26;126439;1099;104484;-78
2020/12/18 07:01:02;;;;;;;59.47;33.63;;;;;;;3.39;83.09;100997.41;126722;1098;104471;-79
2020/12/18 07:03:46;;;;;;;62.10;33.23;;;;;;;3.40;83.55;101005.16;126408;1100;104432;-79
2020/12/18 07:06:22;;;;;;;59.37;32.70;;;;;;;3.40;83.20;101012.03;126489;1098;104564;-79
2020/12/18 07:08:51;;;;;;;53.73;31.90;;;;;;;3.39;83.67;101016.33;126453;1100;104359;-79
2020/12/18 07:11:19;;;;;;;59.97;33.60;;;;;;;3.39;83.00;101013.75;126458;1093;104304;-79
2020/12/18 07:13:51;;;;;;;58.17;32.47;;;;;;;3.41;83.42;101017.23;126461;1096;104384;-79
2020/12/18 07:16:21;;;;;;;59.67;32.20;;;;;;;3.43;83.78;101023.27;126687;1098;104564;-79
2020/12/18 07:18:50;;;;;;;60.53;32.53;;;;;;;3.44;83.35;101013.81;126614;1093;103734;-79
2020/12/18 07:21:19;;;;;;;57.90;32.87;;;;;;;3.45;83.06;101018.98;126484;1100;104816;-79
2020/12/18 07:23:48;;;;;;;58.47;32.57;;;;;;;3.49;83.81;101025.03;126511;1098;104436;-79
2020/12/18 07:26:17;;;;;;;59.53;33.37;;;;;;;3.51;83.15;101013.88;126554;1100;104501;-79
2020/12/18 07:28:46;;;;;;;58.27;32.40;;;;;;;3.50;83.72;101022.46;126542;1100;103785;-78
2020/12/18 07:31:24;;;;;;;60.60;33.63;;;;;;;3.50;83.48;101025.05;126446;1100;104595;-79
2020/12/18 07:33:56;;;;;;;59.67;32.73;;;;;;;3.50;83.88;101027.62;126661;1098;104458;-79
2020/12/18 07:36:26;;;;;;;66.60;32.60;;;;;;;3.53;83.85;101027.64;126420;1100;105483;-79
2020/12/18 07:38:57;;;;;;;64.37;33.27;;;;;;;3.57;83.32;101026.81;126672;1093;104462;-78
2020/12/18 07:41:27;;;;;;;64.23;33.40;;;;;;;3.58;83.25;101031.12;126708;1093;104516;-78
2020/12/18 07:44:06;;;;;;;62.17;35.80;;;;;;;3.63;84.08;101029.47;126476;1093;104543;-79
2020/12/18 07:46:34;;;;;;;65.33;33.30;;;;;;;3.66;83.38;101036.36;126567;1100;104424;-78
2020/12/18 07:49:09;;;;;;;62.60;33.65;;;;;;;3.68;84.05;101037.23;126640;1098;104464;-77
2020/12/18 07:51:37;;;;;;;63.43;33.17;;;;;;;3.70;83.41;101029.50;126530;1098;104391;-78
2020/12/18 07:54:05;;;;;;;68.47;35.80;;;;;;;3.74;83.40;101041.57;126745;1098;104416;-78
2020/12/18 07:56:32;;;;;;;64.10;34.60;;;;;;;3.78;83.45;101045.93;126435;1100;104589;-78
2020/12/18 07:59:05;;;;;;;66.57;34.73;;;;;;;3.77;83.80;101039.02;126452;1100;104448;-78
2020/12/18 08:01:35;;;;;;;66.37;34.50;;;;;;;3.80;83.32;101054.55;126453;1099;104388;-79
2020/12/18 08:04:08;;;;;;;66.40;35.97;;;;;;;3.80;84.05;101057.13;126667;1093;105019;-78
2020/12/18 08:06:39;;;;;;;64.63;34.07;;;;;;;3.83;83.89;101051.98;126397;1099;104378;-78
2020/12/18 08:09:11;;;;;;;59.60;32.47;;;;;;;3.87;83.72;101048.57;126586;1098;104267;-79
2020/12/18 08:11:52;;;;;;;63.10;33.80;;;;;;;3.86;83.80;101052.00;126457;1099;104546;-79
2020/12/18 08:14:20;;;;;;;62.03;33.53;;;;;;;3.87;83.70;101058.89;126673;1098;104282;-79
2020/12/18 08:16:48;;;;;;;63.00;33.93;;;;;;;3.88;83.41;101058.03;126655;1098;104447;-78
2020/12/18 08:19:15;;;;;;;68.00;34.50;;;;;;;3.89;83.39;101052.02;126416;1099;104706;-78
2020/12/18 08:21:45;;;;;;;68.60;35.60;;;;;;;3.93;83.69;101052.05;126367;1093;104239;-78
2020/12/18 08:24:54;;;;;;;71.10;35.47;;;;;;;3.95;83.56;101062.41;126659;1098;104433;-78
2020/12/18 08:27:24;;;;;;;71.33;36.87;;;;;;;3.98;83.62;101065.02;126405;1101;104535;-79
2020/12/18 08:29:53;;;;;;;80.37;38.00;;;;;;;4.03;84.51;101076.23;126405;1101;104520;-78
2020/12/18 08:32:27;;;;;;;73.73;35.30;;;;;;;4.06;83.72;101060.76;126424;1097;104492;-79
2020/12/18 08:35:04;;;;;;;74.43;37.10;;;;;;;4.09;83.50;101071.10;126283;1101;104346;-78
2020/12/18 08:37:32;;;;;;;77.30;35.92;;;;;;;4.09;84.27;101065.08;126357;1096;104397;-79
2020/12/18 08:40:00;;;;;;;82.83;39.10;;;;;;;4.12;83.66;101065.95;126363;1101;104263;-79
2020/12/18 08:42:28;;;;;;;80.87;38.30;;;;;;;4.17;84.51;101064.30;126359;1101;104474;-78
2020/12/18 08:44:59;;;;;;;65.80;33.90;;;;;;;4.20;83.86;101072.05;126360;1096;104553;-78
2020/12/18 08:47:28;;;;;;;76.07;37.57;;;;;;;4.20;83.98;101069.47;126371;1102;104618;-79
2020/12/18 08:49:57;;;;;;;74.40;37.13;;;;;;;4.22;83.52;101072.93;126417;1101;104205;-79
2020/12/18 08:52:30;;;;;;;72.47;36.43;;;;;;;4.28;83.70;101072.09;126400;1096;105933;-79
2020/12/18 08:55:05;;;;;;;73.17;37.90;;;;;;;4.32;83.77;101068.70;126316;1097;104487;-79
2020/12/18 08:57:36;;;;;;;66.63;35.53;;;;;;;4.34;84.13;101066.98;126291;1096;104717;-78
2020/12/18 09:00:15;;;;;;;68.43;35.60;;;;;;;4.36;83.45;101070.45;126608;1099;104494;-79
2020/12/18 09:02:55;;;;;;;62.93;34.60;;;;;;;4.41;84.20;101073.05;126429;1098;104420;-78
2020/12/18 09:05:23;;;;;;;64.07;34.93;;;;;;;4.45;84.13;101072.20;126661;1093;104439;-79
2020/12/18 09:07:54;;;;;;;67.90;36.37;;;;;;;4.48;84.06;101069.62;126674;1093;104424;-78
2020/12/18 09:10:27;;;;;;;63.73;34.27;;;;;;;4.51;83.90;101075.70;126672;1098;103181;-78
2020/12/18 09:12:57;;;;;;;63.87;34.93;;;;;;;4.55;83.83;101076.58;126650;1098;104378;-78
2020/12/18 09:15:31;;;;;;;63.37;34.00;;;;;;;4.56;83.89;101070.56;126469;1099;104417;-79
2020/12/18 09:18:07;;;;;;;63.13;33.90;;;;;;;4.61;83.84;101076.61;126428;1100;103586;-79
2020/12/18 09:20:40;;;;;;;67.50;37.20;;;;;;;4.65;83.52;101077.48;126449;1099;103326;-78
2020/12/18 09:23:10;;;;;;;69.33;38.13;;;;;;;4.66;83.35;101071.45;126463;1099;104401;-78
2020/12/18 09:25:49;;;;;;;72.90;37.67;;;;;;;4.69;83.83;101074.08;126379;1100;102424;-78
2020/12/18 09:28:19;;;;;;;69.15;36.65;;;;;;;4.71;83.48;101072.36;126411;1100;104381;-78
2020/12/18 09:30:48;;;;;;;68.30;36.67;;;;;;;4.72;83.36;101072.37;126468;1098;104401;-78
2020/12/18 09:33:25;;;;;;;66.83;36.70;;;;;;;4.73;83.17;101073.23;126675;1098;104400;-78
2020/12/18 09:36:01;;;;;;;70.73;37.47;;;;;;;4.73;83.46;101070.64;126633;1098;103181;-77
2020/12/18 09:38:35;;;;;;;62.93;36.00;;;;;;;4.75;83.66;101084.44;126707;1093;104464;-78
2020/12/18 09:41:05;;;;;;;69.53;37.27;;;;;;;4.80;83.80;101073.25;126697;1093;105437;-78
2020/12/18 09:43:33;;;;;;;64.70;37.20;;;;;;;4.85;83.04;101070.72;126713;1093;104455;-77
2020/12/18 09:46:01;;;;;;;71.13;38.33;;;;;;;4.89;83.16;101084.51;126675;1098;104452;-78
2020/12/18 09:48:29;;;;;;;72.73;37.87;;;;;;;4.91;83.68;101081.06;126425;1100;103389;-78
2020/12/18 09:50:58;;;;;;;68.97;36.53;;;;;;;4.91;82.94;101087.95;126605;1098;104611;-78
2020/12/18 09:53:26;;;;;;;67.97;36.73;;;;;;;4.92;83.31;101076.77;126454;1093;103578;-79
2020/12/18 09:55:54;;;;;;;67.47;37.27;;;;;;;4.91;83.03;101081.06;126782;1093;104505;-78
2020/12/18 09:58:25;;;;;;;70.30;39.87;;;;;;;4.94;83.58;101081.08;126509;1100;104465;-79
2020/12/18 10:00:53;;;;;;;70.05;38.10;;;;;;;4.97;83.68;101086.25;126572;1098;104410;-78
2020/12/18 10:03:20;;;;;;;70.67;37.07;;;;;;;4.99;83.08;101084.53;126538;1099;104531;-79
2020/12/18 10:05:48;;;;;;;66.87;37.30;;;;;;;5.00;83.08;101088.84;126598;1093;104433;-79
2020/12/18 10:08:17;;;;;;;64.77;35.50;;;;;;;5.01;82.89;101081.95;126494;1099;104548;-78
2020/12/18 10:10:46;;;;;;;62.33;35.87;;;;;;;5.02;82.87;101087.13;126458;1100;104864;-79
2020/12/18 10:13:14;;;;;;;68.50;36.40;;;;;;;5.07;82.97;101082.86;126456;1100;104394;-79
2020/12/18 10:15:42;;;;;;;63.20;34.97;;;;;;;5.12;83.50;101081.14;126425;1099;104547;-78
2020/12/18 10:18:09;;;;;;;65.17;35.10;;;;;;;5.14;83.15;101087.18;126440;1100;104427;-78
2020/12/18 10:20:37;;;;;;;63.70;36.90;;;;;;;5.19;83.42;101082.02;126510;1093;104307;-79
2020/12/18 10:23:05;;;;;;;62.93;35.90;;;;;;;5.21;82.83;101082.91;126646;1098;104525;-79
2020/12/18 10:25:32;;;;;;;58.30;35.08;;;;;;;5.26;83.04;101081.19;126666;1098;104496;-79
2020/12/18 10:28:02;;;;;;;60.03;35.30;;;;;;;5.30;82.89;101084.65;126626;1093;104544;-79
2020/12/18 10:30:30;;;;;;;65.23;36.80;;;;;;;5.35;83.01;101078.62;126628;1093;105207;-78
2020/12/18 10:32:58;;;;;;;61.70;36.17;;;;;;;5.38;82.85;101080.34;126421;1093;104509;-78
2020/12/18 10:35:25;;;;;;;61.00;36.37;;;;;;;5.45;82.68;101084.69;126508;1093;104433;-78
2020/12/18 10:37:54;;;;;;;65.17;37.07;;;;;;;5.49;82.97;101081.24;126448;1094;104215;-79
2020/12/18 10:40:22;;;;;;;64.17;37.00;;;;;;;5.54;82.91;101094.18;126538;1099;105574;-79
2020/12/18 10:42:49;;;;;;;68.00;38.20;;;;;;;5.58;82.93;101091.63;126653;1093;104445;-79
2020/12/18 10:45:16;;;;;;;61.37;36.13;;;;;;;5.60;82.38;101079.55;126428;1094;104498;-80
2020/12/18 10:47:44;;;;;;;63.30;36.30;;;;;;;5.59;82.43;101097.66;126436;1098;104381;-79
2020/12/18 10:50:11;;;;;;;66.90;36.57;;;;;;;5.56;82.38;101092.45;126398;1096;104490;-79
2020/12/18 10:52:38;;;;;;;59.53;34.77;;;;;;;5.55;82.37;101089.00;126504;1093;104464;-79
2020/12/18 10:55:06;;;;;;;65.03;38.43;;;;;;;5.52;82.42;101095.91;126669;1098;104471;-79
2020/12/18 10:57:33;;;;;;;60.08;36.25;;;;;;;5.51;82.40;101086.41;126540;1098;104894;-79
2020/12/18 11:00:01;;;;;;;64.03;37.37;;;;;;;5.51;82.33;101094.18;126634;1093;104534;-80
2020/12/18 11:02:33;;;;;;;62.17;37.10;;;;;;;5.53;82.51;101092.45;126585;1098;104472;-79
2020/12/18 11:05:00;;;;;;;61.40;37.87;;;;;;;5.55;82.02;101091.59;126394;1096;104499;-80
2020/12/18 11:07:28;;;;;;;65.63;36.03;;;;;;;5.58;82.20;101088.17;126672;1093;104575;-79
2020/12/18 11:09:55;;;;;;;67.33;39.13;;;;;;;5.60;82.21;101094.21;126486;1099;104548;-79
2020/12/18 11:12:22;;;;;;;62.50;37.17;;;;;;;5.63;82.38;101086.45;126680;1098;104365;-79
2020/12/18 11:14:50;;;;;;;63.90;37.63;;;;;;;5.64;82.00;101090.76;126436;1093;104426;-78
2020/12/18 11:17:17;;;;;;;67.57;38.43;;;;;;;5.65;82.07;101092.48;126650;1093;104394;-79
2020/12/18 11:19:44;;;;;;;70.00;40.70;;;;;;;5.62;81.79;101090.76;126463;1093;104531;-80
2020/12/18 11:22:11;;;;;;;61.73;38.20;;;;;;;5.63;82.49;101095.08;126671;1093;104391;-78
2020/12/18 11:24:39;;;;;;;66.57;39.90;;;;;;;5.64;81.94;101098.52;126553;1098;104987;-80
2020/12/18 11:27:18;;;;;;;63.20;38.23;;;;;;;5.64;81.92;101090.76;126649;1098;104524;-79
2020/12/18 11:29:45;;;;;;;62.45;37.90;;;;;;;5.65;82.26;101076.95;126627;1098;104391;-80
2020/12/18 11:32:15;;;;;;;67.17;39.27;;;;;;;5.69;81.87;101084.72;126506;1099;104478;-79